Погода Бургенландна неделю

Бургенланд, Австрия

19 - 25 июня
  • 19июня
    Сегодня
    +19°
    +33°
    Ясно и безоблачно
    ВремяПогодаТемператураВлажностьДавлениеВетер, м/сВероятность осадков
    02:00Ясно и безоблачно+17°C83 %734 мм0.6 м/с2 %
    05:00Облачно с прояснениями+15°C91 %734 мм0.4 м/с2 %
    08:00Ясно и безоблачно+21°C82 %734 мм0.6 м/с2 %
    11:00Практически безоблачно+27°C61 %734 мм1.9 м/с2 %
    14:00Ясно и безоблачно+31°C47 %734 мм1.8 м/с2 %
    17:00Ясно и безоблачно+32°C46 %734 мм1.9 м/с2 %
    20:00Небольшая облачность+28°C66 %734 мм0.6 м/с2 %
    23:00Ясно и безоблачно+22°C77 %735 мм0.6 м/с2 %
  • 20июня
    Четверг
    +18°
    +29°
    Небольшая облачность
    ВремяПогодаТемператураВлажностьДавлениеВетер, м/сВероятность осадков
    02:00Практически безоблачно+22°C68 %737 мм1.3 м/с2 %
    05:00Ясно и безоблачно+20°C74 %738 мм1.6 м/с2 %
    08:00Практически безоблачно+21°C77 %739 мм1.5 м/с2 %
    11:00Облачно с прояснениями+24°C66 %740 мм1.9 м/с2 %
    14:00Небольшая облачность+27°C60 %740 мм1.3 м/с4 %
    17:00Пасмурно, сплошная облачность+28°C58 %739 мм1.6 м/с2 %
    20:00Облачно с прояснениями+26°C75 %738 мм0.4 м/с2 %
    23:00Облачно с прояснениями+21°C79 %737 мм0.5 м/с2 %
  • 21июня
    Пятница
    +19°
    +33°
    Практически безоблачно
    ВремяПогодаТемператураВлажностьДавлениеВетер, м/сВероятность осадков
    02:00Облачно с прояснениями+20°C82 %737 мм0.2 м/с2 %
    05:00Облачно с прояснениями+18°C86 %736 мм0.2 м/с2 %
    08:00Практически безоблачно+23°C78 %736 мм0.5 м/с2 %
    11:00Небольшая облачность+28°C67 %736 мм1.8 м/с2 %
    14:00Практически безоблачно+31°C57 %735 мм1.6 м/с2 %
    17:00Практически безоблачно+33°C56 %734 мм2.1 м/с15 %
    20:00Облачно с прояснениями+29°C70 %733 мм1.0 м/с2 %
    23:00Практически безоблачно+23°C73 %732 мм0.5 м/с2 %
  • 22июня
    Суббота
    +16°
    +28°
    Практически безоблачно
    ВремяПогодаТемператураВлажностьДавлениеВетер, м/сВероятность осадков
    02:00Ясно и безоблачно+21°C80 %732 мм0.3 м/с5 %
    05:00Небольшая облачность+20°C82 %732 мм0.7 м/с23 %
    08:00Небольшая облачность, возможен дождь с грозой+21°C81 %733 мм0.8 м/с42 %
    11:00Небольшая облачность+24°C55 %734 мм2.4 м/с27 %
    14:00Практически безоблачно+27°C46 %734 мм2.0 м/с17 %
    17:00Практически безоблачно+27°C44 %734 мм2.4 м/с24 %
    20:00Ясно и безоблачно+24°C52 %734 мм1.2 м/с16 %
    23:00Ясно и безоблачно+20°C56 %734 мм1.1 м/с9 %
  • 23июня
    Воскресенье
    +18°
    +27°
    Ясно и безоблачно
    ВремяПогодаТемператураВлажностьДавлениеВетер, м/сВероятность осадков
    02:00Ясно и безоблачно+18°C60 %734 мм1.1 м/с11 %
    05:00Ясно и безоблачно+17°C64 %734 мм0.9 м/с8 %
    08:00Практически безоблачно+21°C59 %735 мм1.6 м/с14 %
    11:00Небольшая облачность+24°C48 %736 мм3.1 м/с16 %
    14:00Ясно и безоблачно+26°C41 %735 мм2.8 м/с15 %
    17:00Ясно и безоблачно+26°C43 %735 мм2.8 м/с15 %
    20:00Практически безоблачно+24°C54 %735 мм1.4 м/с15 %
    23:00Ясно и безоблачно+21°C55 %736 мм2.0 м/с10 %
Мы используем cookies
Соглашаюсь